NOZ1550 ENGM-LHBP
Flight info
| Callsign | NOZ1550 |
|---|---|
| Flight time | N/A |
| Altitude | 35000 |
| Route | OKSAT L996 GETPA/N0462F350 L996 KELIN DCT POKEN Z491 XELOL DCT VAGON DCT REGLI DCT REVMA DCT EDEMU |
| Aircraft | B738/M-SDE2E3FGHIRWXY/LB1 |
Departure
| Time | N/A |
|---|---|
| Airport | Oslo-Gardermoen International Airport (ENGM) |
Arrival
| Time | 2026-05-06 11:15 |
|---|---|
| Airport | Budapest Liszt Ferenc International Airport (LHBP) |
| Time | Latitude | Longitude | Altitude | Speed | Heading |
|---|---|---|---|---|---|
| 2026-05-06 10:02 | 53.83689 | 15.24596 | 34783 ft | 432 kts | 155° |
| 2026-05-06 10:02 | 53.78266 | 15.28863 | 34779 ft | 431 kts | 155° |
| 2026-05-06 10:03 | 53.72808 | 15.33140 | 34767 ft | 434 kts | 156° |
| 2026-05-06 10:03 | 53.67338 | 15.37416 | 34766 ft | 434 kts | 156° |
| 2026-05-06 10:04 | 53.61876 | 15.41676 | 34740 ft | 433 kts | 156° |
| 2026-05-06 10:04 | 53.56422 | 15.45918 | 34751 ft | 435 kts | 156° |
| 2026-05-06 10:05 | 53.50937 | 15.50173 | 34759 ft | 434 kts | 156° |
| 2026-05-06 10:05 | 53.45459 | 15.54410 | 34751 ft | 434 kts | 156° |
| 2026-05-06 10:06 | 53.39982 | 15.58634 | 34738 ft | 434 kts | 157° |
| 2026-05-06 10:06 | 53.34479 | 15.62864 | 34756 ft | 435 kts | 157° |
| 2026-05-06 10:07 | 53.29023 | 15.67046 | 34753 ft | 435 kts | 158° |
| 2026-05-06 10:07 | 53.23480 | 15.71281 | 34739 ft | 435 kts | 158° |
| 2026-05-06 10:08 | 53.17962 | 15.75488 | 34731 ft | 436 kts | 158° |
| 2026-05-06 10:08 | 53.12465 | 15.79666 | 34742 ft | 436 kts | 158° |
| 2026-05-06 10:09 | 53.06918 | 15.83871 | 34741 ft | 437 kts | 159° |
| 2026-05-06 10:09 | 53.01347 | 15.88081 | 34729 ft | 437 kts | 159° |
| 2026-05-06 10:10 | 52.95822 | 15.92246 | 34734 ft | 436 kts | 159° |
| 2026-05-06 10:10 | 52.90316 | 15.96385 | 34734 ft | 434 kts | 159° |
| 2026-05-06 10:11 | 52.84776 | 16.00534 | 34735 ft | 434 kts | 159° |
| 2026-05-06 10:11 | 52.79279 | 16.04642 | 34738 ft | 433 kts | 159° |
| 2026-05-06 10:12 | 52.73778 | 16.08742 | 34734 ft | 432 kts | 159° |
| 2026-05-06 10:12 | 52.68343 | 16.12778 | 34741 ft | 433 kts | 159° |
| 2026-05-06 10:13 | 52.62837 | 16.16859 | 34741 ft | 433 kts | 160° |
| 2026-05-06 10:13 | 52.57369 | 16.20900 | 34742 ft | 434 kts | 160° |
| 2026-05-06 10:14 | 52.51862 | 16.24958 | 34746 ft | 432 kts | 160° |
| 2026-05-06 10:14 | 52.46347 | 16.29012 | 34737 ft | 431 kts | 160° |
| 2026-05-06 10:15 | 52.40924 | 16.32987 | 34731 ft | 430 kts | 160° |
| 2026-05-06 10:15 | 52.35431 | 16.36999 | 34744 ft | 430 kts | 160° |
| 2026-05-06 10:16 | 52.29934 | 16.41006 | 34734 ft | 429 kts | 160° |
| 2026-05-06 10:16 | 52.24484 | 16.44969 | 34739 ft | 429 kts | 160° |
| 2026-05-06 10:17 | 52.19065 | 16.48897 | 34745 ft | 429 kts | 161° |
| 2026-05-06 10:17 | 52.13596 | 16.52851 | 34731 ft | 426 kts | 161° |
| 2026-05-06 10:18 | 52.08199 | 16.56743 | 34732 ft | 427 kts | 161° |
| 2026-05-06 10:18 | 52.02758 | 16.60656 | 34726 ft | 423 kts | 161° |
| 2026-05-06 10:19 | 51.97362 | 16.64523 | 34729 ft | 427 kts | 161° |
| 2026-05-06 10:19 | 51.91943 | 16.68398 | 34732 ft | 425 kts | 162° |
| 2026-05-06 10:20 | 51.86497 | 16.72281 | 34734 ft | 427 kts | 162° |
| 2026-05-06 10:20 | 51.81073 | 16.76141 | 34733 ft | 426 kts | 162° |
| 2026-05-06 10:21 | 51.75642 | 16.79996 | 34731 ft | 427 kts | 162° |
| 2026-05-06 10:21 | 51.70137 | 16.83895 | 34749 ft | 427 kts | 162° |
| 2026-05-06 10:22 | 51.64692 | 16.87738 | 34738 ft | 427 kts | 162° |
| 2026-05-06 10:22 | 51.59251 | 16.91568 | 34739 ft | 429 kts | 162° |
| 2026-05-06 10:23 | 51.53750 | 16.95430 | 34747 ft | 428 kts | 162° |
| 2026-05-06 10:23 | 51.48278 | 16.99260 | 34737 ft | 429 kts | 162° |
| 2026-05-06 10:24 | 51.42828 | 17.03068 | 34757 ft | 428 kts | 162° |
| 2026-05-06 10:24 | 51.37365 | 17.06870 | 34758 ft | 430 kts | 162° |
| 2026-05-06 10:25 | 51.31883 | 17.10676 | 34761 ft | 429 kts | 162° |
| 2026-05-06 10:25 | 51.26404 | 17.14510 | 34759 ft | 430 kts | 162° |
| 2026-05-06 10:26 | 51.20930 | 17.18391 | 34770 ft | 431 kts | 162° |
| 2026-05-06 10:26 | 51.15411 | 17.22306 | 34772 ft | 432 kts | 162° |
| 2026-05-06 10:27 | 51.09922 | 17.26183 | 34768 ft | 432 kts | 162° |
| 2026-05-06 10:27 | 51.04422 | 17.30052 | 34765 ft | 433 kts | 162° |
| 2026-05-06 10:28 | 50.98882 | 17.33936 | 34773 ft | 433 kts | 162° |
| 2026-05-06 10:28 | 50.93333 | 17.37813 | 34772 ft | 433 kts | 162° |
| 2026-05-06 10:29 | 50.87833 | 17.41646 | 34776 ft | 432 kts | 162° |
| 2026-05-06 10:29 | 50.82332 | 17.45471 | 34779 ft | 434 kts | 162° |
| 2026-05-06 10:30 | 50.76804 | 17.49302 | 34783 ft | 434 kts | 162° |
| 2026-05-06 10:30 | 50.71189 | 17.53186 | 34785 ft | 435 kts | 162° |
| 2026-05-06 10:31 | 50.65658 | 17.57002 | 34785 ft | 435 kts | 162° |
| 2026-05-06 10:31 | 50.60137 | 17.60802 | 34788 ft | 436 kts | 162° |
| 2026-05-06 10:32 | 50.54570 | 17.64621 | 34796 ft | 438 kts | 161° |
| 2026-05-06 10:32 | 50.48962 | 17.68463 | 34799 ft | 436 kts | 162° |
| 2026-05-06 10:33 | 50.43427 | 17.72242 | 34800 ft | 437 kts | 162° |
| 2026-05-06 10:33 | 50.37860 | 17.76034 | 34799 ft | 436 kts | 162° |
| 2026-05-06 10:34 | 50.32291 | 17.79818 | 34794 ft | 435 kts | 162° |
| 2026-05-06 10:34 | 50.26710 | 17.83596 | 34796 ft | 438 kts | 162° |
| 2026-05-06 10:35 | 50.21069 | 17.87409 | 34802 ft | 438 kts | 162° |
| 2026-05-06 10:35 | 50.15438 | 17.91203 | 34809 ft | 438 kts | 162° |
| 2026-05-06 10:36 | 50.09824 | 17.94978 | 34806 ft | 439 kts | 162° |
| 2026-05-06 10:36 | 50.04277 | 17.99037 | 34817 ft | 444 kts | 156° |
| 2026-05-06 10:37 | 49.99155 | 18.04508 | 34825 ft | 450 kts | 147° |
| 2026-05-06 10:37 | 49.94318 | 18.10815 | 34832 ft | 455 kts | 144° |
| 2026-05-06 10:38 | 49.89527 | 18.17346 | 34833 ft | 454 kts | 144° |
| 2026-05-06 10:38 | 49.84759 | 18.23811 | 34836 ft | 455 kts | 144° |
| 2026-05-06 10:39 | 49.79971 | 18.30230 | 34839 ft | 454 kts | 144° |
| 2026-05-06 10:39 | 49.75176 | 18.36598 | 34842 ft | 453 kts | 144° |
| 2026-05-06 10:40 | 49.70375 | 18.42942 | 34846 ft | 454 kts | 144° |
| 2026-05-06 10:40 | 49.65571 | 18.49263 | 34855 ft | 454 kts | 144° |
| 2026-05-06 10:41 | 49.60713 | 18.55637 | 34862 ft | 455 kts | 143° |
| 2026-05-06 10:41 | 49.55896 | 18.61937 | 34861 ft | 455 kts | 143° |
| 2026-05-06 10:42 | 49.53461 | 18.65115 | 34585 ft | 457 kts | 144° |
| 2026-05-06 10:42 | 49.51028 | 18.68211 | 34251 ft | 451 kts | 146° |
| 2026-05-06 10:42 | 49.48527 | 18.71019 | 33918 ft | 443 kts | 150° |
| 2026-05-06 10:42 | 49.45908 | 18.73551 | 33584 ft | 438 kts | 154° |
| 2026-05-06 10:43 | 49.43285 | 18.75866 | 33252 ft | 436 kts | 155° |
| 2026-05-06 10:43 | 49.40651 | 18.78101 | 32923 ft | 434 kts | 156° |
| 2026-05-06 10:43 | 49.38003 | 18.80318 | 32591 ft | 433 kts | 156° |
| 2026-05-06 10:44 | 49.32748 | 18.84718 | 31924 ft | 430 kts | 155° |
| 2026-05-06 10:44 | 49.30141 | 18.86912 | 31592 ft | 427 kts | 155° |
| 2026-05-06 10:44 | 49.27544 | 18.89106 | 31260 ft | 425 kts | 155° |
| 2026-05-06 10:44 | 49.24979 | 18.91278 | 30931 ft | 425 kts | 155° |
| 2026-05-06 10:45 | 49.22410 | 18.93457 | 30599 ft | 423 kts | 155° |
| 2026-05-06 10:45 | 49.19843 | 18.95636 | 30273 ft | 424 kts | 154° |
| 2026-05-06 10:45 | 49.17261 | 18.97827 | 29950 ft | 425 kts | 154° |
| 2026-05-06 10:45 | 49.14688 | 19.00012 | 29623 ft | 419 kts | 154° |
| 2026-05-06 10:46 | 49.12143 | 19.02174 | 29290 ft | 414 kts | 154° |
| 2026-05-06 10:46 | 49.09654 | 19.04286 | 28968 ft | 413 kts | 154° |
| 2026-05-06 10:46 | 49.07132 | 19.06422 | 28647 ft | 413 kts | 154° |
| 2026-05-06 10:46 | 49.04609 | 19.08554 | 28323 ft | 412 kts | 154° |
| 2026-05-06 10:47 | 49.02129 | 19.10650 | 28002 ft | 409 kts | 154° |
| 2026-05-06 10:47 | 48.99658 | 19.12735 | 27680 ft | 408 kts | 154° |
| 2026-05-06 10:47 | 48.97197 | 19.14810 | 27358 ft | 406 kts | 154° |
| 2026-05-06 10:47 | 48.94714 | 19.16900 | 27033 ft | 404 kts | 154° |
| 2026-05-06 10:48 | 48.92265 | 19.18957 | 26709 ft | 403 kts | 154° |
| 2026-05-06 10:48 | 48.89830 | 19.21001 | 26389 ft | 401 kts | 154° |
| 2026-05-06 10:48 | 48.87392 | 19.23044 | 26070 ft | 399 kts | 154° |
| 2026-05-06 10:48 | 48.84968 | 19.25074 | 25748 ft | 397 kts | 154° |
| 2026-05-06 10:49 | 48.82532 | 19.27111 | 25422 ft | 396 kts | 154° |
| 2026-05-06 10:49 | 48.80137 | 19.29112 | 25103 ft | 395 kts | 154° |
| 2026-05-06 10:49 | 48.77740 | 19.31116 | 24777 ft | 393 kts | 154° |
| 2026-05-06 10:49 | 48.75373 | 19.33094 | 24454 ft | 391 kts | 154° |
| 2026-05-06 10:50 | 48.72993 | 19.35083 | 24128 ft | 388 kts | 154° |
| 2026-05-06 10:50 | 48.70628 | 19.37056 | 23805 ft | 385 kts | 154° |
| 2026-05-06 10:50 | 48.68307 | 19.38989 | 23485 ft | 383 kts | 154° |
| 2026-05-06 10:50 | 48.65991 | 19.40915 | 23169 ft | 382 kts | 154° |
| 2026-05-06 10:51 | 48.63654 | 19.42855 | 22849 ft | 379 kts | 154° |
| 2026-05-06 10:51 | 48.61366 | 19.44752 | 22537 ft | 377 kts | 154° |
| 2026-05-06 10:51 | 48.59078 | 19.46647 | 22220 ft | 376 kts | 154° |
| 2026-05-06 10:51 | 48.56783 | 19.48546 | 21900 ft | 374 kts | 154° |
| 2026-05-06 10:52 | 48.54536 | 19.50403 | 21587 ft | 371 kts | 154° |
| 2026-05-06 10:52 | 48.52276 | 19.52271 | 21274 ft | 369 kts | 154° |
| 2026-05-06 10:52 | 48.50021 | 19.54130 | 20961 ft | 368 kts | 154° |
| 2026-05-06 10:52 | 48.47794 | 19.55966 | 20650 ft | 366 kts | 154° |
| 2026-05-06 10:53 | 48.45580 | 19.57789 | 20338 ft | 364 kts | 154° |
| 2026-05-06 10:53 | 48.43344 | 19.59627 | 20029 ft | 362 kts | 154° |
| 2026-05-06 10:53 | 48.41154 | 19.61427 | 19723 ft | 360 kts | 154° |
| 2026-05-06 10:53 | 48.38969 | 19.63221 | 19411 ft | 358 kts | 154° |
| 2026-05-06 10:54 | 48.36804 | 19.64997 | 19109 ft | 356 kts | 154° |
| 2026-05-06 10:54 | 48.34619 | 19.66787 | 18804 ft | 355 kts | 155° |
| 2026-05-06 10:54 | 48.32452 | 19.68561 | 18496 ft | 353 kts | 154° |
| 2026-05-06 10:54 | 48.30299 | 19.70321 | 18192 ft | 351 kts | 154° |
| 2026-05-06 10:55 | 48.28187 | 19.72046 | 17889 ft | 350 kts | 154° |
| 2026-05-06 10:55 | 48.26037 | 19.73800 | 17583 ft | 348 kts | 154° |
| 2026-05-06 10:55 | 48.23926 | 19.75519 | 17278 ft | 347 kts | 154° |
| 2026-05-06 10:55 | 48.21826 | 19.77228 | 16982 ft | 346 kts | 154° |
| 2026-05-06 10:56 | 48.19677 | 19.78858 | 16691 ft | 343 kts | 159° |
| 2026-05-06 10:56 | 48.17439 | 19.79953 | 16434 ft | 338 kts | 172° |
| 2026-05-06 10:56 | 48.15126 | 19.80186 | 16195 ft | 334 kts | 185° |
| 2026-05-06 10:56 | 48.12785 | 19.79821 | 15953 ft | 338 kts | 190° |
| 2026-05-06 10:57 | 48.10509 | 19.79295 | 15701 ft | 330 kts | 191° |
| 2026-05-06 10:57 | 48.08250 | 19.78723 | 15452 ft | 326 kts | 192° |
| 2026-05-06 10:57 | 48.06028 | 19.78158 | 15208 ft | 326 kts | 191° |
| 2026-05-06 10:57 | 48.03800 | 19.77606 | 14957 ft | 326 kts | 191° |
| 2026-05-06 10:58 | 48.01539 | 19.77063 | 14704 ft | 325 kts | 191° |
| 2026-05-06 10:58 | 47.99323 | 19.76543 | 14456 ft | 325 kts | 191° |
| 2026-05-06 10:58 | 47.97098 | 19.76026 | 14205 ft | 323 kts | 191° |
| 2026-05-06 10:58 | 47.94890 | 19.75514 | 13955 ft | 322 kts | 191° |
| 2026-05-06 10:59 | 47.92671 | 19.75000 | 13701 ft | 320 kts | 191° |
| 2026-05-06 10:59 | 47.90469 | 19.74488 | 13453 ft | 319 kts | 191° |
| 2026-05-06 10:59 | 47.88300 | 19.73985 | 13210 ft | 319 kts | 191° |
| 2026-05-06 10:59 | 47.86109 | 19.73478 | 12960 ft | 317 kts | 191° |
| 2026-05-06 11:00 | 47.83970 | 19.72814 | 12710 ft | 313 kts | 199° |
| 2026-05-06 11:00 | 47.82028 | 19.71397 | 12457 ft | 311 kts | 218° |
| 2026-05-06 11:00 | 47.80414 | 19.69309 | 12218 ft | 307 kts | 224° |
| 2026-05-06 11:00 | 47.78875 | 19.67097 | 11967 ft | 305 kts | 225° |
| 2026-05-06 11:01 | 47.77352 | 19.64905 | 11720 ft | 305 kts | 224° |
| 2026-05-06 11:01 | 47.75825 | 19.62753 | 11471 ft | 302 kts | 224° |
| 2026-05-06 11:01 | 47.74302 | 19.60642 | 11224 ft | 301 kts | 224° |
| 2026-05-06 11:01 | 47.72778 | 19.58550 | 10976 ft | 296 kts | 224° |
| 2026-05-06 11:02 | 47.71275 | 19.56496 | 10726 ft | 288 kts | 224° |
| 2026-05-06 11:02 | 47.69836 | 19.54531 | 10484 ft | 280 kts | 224° |
| 2026-05-06 11:02 | 47.68416 | 19.52593 | 10235 ft | 273 kts | 224° |
| 2026-05-06 11:02 | 47.67040 | 19.50715 | 9987 ft | 268 kts | 224° |
| 2026-05-06 11:03 | 47.65672 | 19.48848 | 9745 ft | 268 kts | 224° |
| 2026-05-06 11:03 | 47.64311 | 19.46991 | 9502 ft | 268 kts | 224° |
| 2026-05-06 11:03 | 47.62927 | 19.45104 | 9254 ft | 267 kts | 224° |
| 2026-05-06 11:03 | 47.61557 | 19.43240 | 9010 ft | 266 kts | 223° |
| 2026-05-06 11:04 | 47.60225 | 19.41429 | 8768 ft | 261 kts | 223° |
| 2026-05-06 11:04 | 47.58888 | 19.39613 | 8518 ft | 255 kts | 223° |
| 2026-05-06 11:04 | 47.57597 | 19.37859 | 8274 ft | 250 kts | 223° |
| 2026-05-06 11:04 | 47.56338 | 19.36148 | 8031 ft | 245 kts | 223° |
| 2026-05-06 11:05 | 47.55143 | 19.34352 | 7779 ft | 241 kts | 231° |
| 2026-05-06 11:05 | 47.54403 | 19.32186 | 7531 ft | 239 kts | 256° |
| 2026-05-06 11:05 | 47.54395 | 19.29762 | 7311 ft | 238 kts | 277° |
| 2026-05-06 11:05 | 47.54917 | 19.27410 | 7060 ft | 241 kts | 291° |
| 2026-05-06 11:06 | 47.55870 | 19.25374 | 6818 ft | 247 kts | 307° |
| 2026-05-06 11:06 | 47.57067 | 19.23528 | 6574 ft | 247 kts | 310° |
| 2026-05-06 11:06 | 47.58271 | 19.21714 | 6337 ft | 254 kts | 309° |
| 2026-05-06 11:06 | 47.59496 | 19.19790 | 6087 ft | 254 kts | 308° |
| 2026-05-06 11:07 | 47.60662 | 19.17915 | 5846 ft | 248 kts | 308° |
| 2026-05-06 11:07 | 47.61818 | 19.16033 | 5600 ft | 243 kts | 308° |
| 2026-05-06 11:07 | 47.62958 | 19.14171 | 5358 ft | 242 kts | 308° |
| 2026-05-06 11:07 | 47.64088 | 19.12326 | 5117 ft | 242 kts | 308° |
| 2026-05-06 11:08 | 47.65173 | 19.10479 | 4967 ft | 237 kts | 303° |
| 2026-05-06 11:08 | 47.65929 | 19.08365 | 4968 ft | 233 kts | 280° |
| 2026-05-06 11:08 | 47.65941 | 19.05988 | 4866 ft | 229 kts | 253° |
| 2026-05-06 11:08 | 47.65333 | 19.03889 | 4669 ft | 222 kts | 236° |
| 2026-05-06 11:09 | 47.64351 | 19.02106 | 4462 ft | 221 kts | 223° |
| 2026-05-06 11:09 | 47.63226 | 19.00622 | 4256 ft | 217 kts | 220° |
| 2026-05-06 11:09 | 47.62050 | 18.99273 | 4048 ft | 211 kts | 211° |
| 2026-05-06 11:09 | 47.60709 | 18.98562 | 3952 ft | 202 kts | 184° |
| 2026-05-06 11:10 | 47.59344 | 18.99025 | 3977 ft | 204 kts | 155° |
| 2026-05-06 11:10 | 47.58208 | 19.00291 | 3966 ft | 207 kts | 138° |
| 2026-05-06 11:10 | 47.57304 | 19.01866 | 3954 ft | 193 kts | 134° |
| 2026-05-06 11:10 | 47.56449 | 19.03348 | 3779 ft | 187 kts | 137° |
| 2026-05-06 11:11 | 47.55585 | 19.04740 | 3545 ft | 183 kts | 137° |
| 2026-05-06 11:11 | 47.54719 | 19.06131 | 3288 ft | 180 kts | 137° |
| 2026-05-06 11:11 | 47.53892 | 19.07484 | 3047 ft | 179 kts | 137° |
| 2026-05-06 11:11 | 47.53054 | 19.08848 | 2801 ft | 177 kts | 137° |
| 2026-05-06 11:12 | 47.52259 | 19.10132 | 2565 ft | 165 kts | 138° |
| 2026-05-06 11:12 | 47.51515 | 19.11339 | 2401 ft | 152 kts | 138° |
| 2026-05-06 11:12 | 47.50798 | 19.12498 | 2159 ft | 153 kts | 138° |
| 2026-05-06 11:12 | 47.50096 | 19.13639 | 1945 ft | 148 kts | 138° |
| 2026-05-06 11:13 | 47.49403 | 19.14755 | 1755 ft | 148 kts | 139° |
| 2026-05-06 11:13 | 47.48700 | 19.15878 | 1471 ft | 151 kts | 139° |
| 2026-05-06 11:13 | 47.47985 | 19.17040 | 1261 ft | 150 kts | 138° |
| 2026-05-06 11:13 | 47.47298 | 19.18158 | 1118 ft | 146 kts | 137° |
| 2026-05-06 11:14 | 47.46614 | 19.19260 | 942 ft | 145 kts | 138° |
| 2026-05-06 11:14 | 47.45929 | 19.20358 | 770 ft | 146 kts | 137° |
| 2026-05-06 11:14 | 47.45251 | 19.21463 | 589 ft | 147 kts | 137° |
| 2026-05-06 11:14 | 47.44561 | 19.22571 | 449 ft | 143 kts | 136° |
| 2026-05-06 11:15 | 47.44002 | 19.23470 | 443 ft | 84 kts | 133° |
| 2026-05-06 11:15 | 47.43680 | 19.23996 | 439 ft | 64 kts | 132° |
| 2026-05-06 11:15 | 47.43396 | 19.24447 | 440 ft | 57 kts | 133° |
| 2026-05-06 11:15 | 47.43176 | 19.24807 | 446 ft | 37 kts | 132° |
| 2026-05-06 11:16 | 47.43116 | 19.25085 | 452 ft | 20 kts | 50° |
| 2026-05-06 11:16 | 47.43204 | 19.25199 | 456 ft | 14 kts | 42° |
| 2026-05-06 11:16 | 47.43269 | 19.25286 | 459 ft | 10 kts | 42° |
| 2026-05-06 11:16 | 47.43319 | 19.25354 | 462 ft | 9 kts | 42° |
| 2026-05-06 11:17 | 47.43335 | 19.25442 | 464 ft | 13 kts | 123° |
| 2026-05-06 11:17 | 47.43307 | 19.25580 | 466 ft | 17 kts | 50° |
| 2026-05-06 11:17 | 47.43398 | 19.25703 | 470 ft | 16 kts | 41° |
| 2026-05-06 11:17 | 47.43476 | 19.25808 | 472 ft | 14 kts | 43° |
| 2026-05-06 11:18 | 47.43543 | 19.25894 | 474 ft | 9 kts | 16° |
| 2026-05-06 11:18 | 47.43580 | 19.25858 | 475 ft | 2 kts | 311° |
| 2026-05-06 11:18 | 47.43580 | 19.25857 | 475 ft | 0 kts | 311° |